createdAt,value
2022-12-01T00:00:09.281Z,163.90
2022-12-01T00:01:09.265Z,158.60
2022-12-01T00:02:09.412Z,147.40
2022-12-01T00:03:09.429Z,166.30
2022-12-01T00:04:09.231Z,157.70
2022-12-01T00:05:09.248Z,171.00
2022-12-01T00:06:09.296Z,162.10
2022-12-01T00:07:09.188Z,166.10
2022-12-01T00:08:09.256Z,180.30
2022-12-01T00:09:09.169Z,181.20
2022-12-01T00:10:09.196Z,176.50
2022-12-01T00:11:09.146Z,193.10
2022-12-01T00:12:09.216Z,170.50
2022-12-01T00:13:09.148Z,160.70
2022-12-01T00:14:09.124Z,182.10
2022-12-01T00:15:09.150Z,156.30
2022-12-01T00:16:09.157Z,179.90
2022-12-01T00:17:09.117Z,168.00
2022-12-01T00:18:09.106Z,185.40
2022-12-01T00:19:09.095Z,167.40
2022-12-01T00:20:09.085Z,168.00
2022-12-01T00:21:09.046Z,177.10
2022-12-01T00:22:09.036Z,181.00
2022-12-01T00:23:09.086Z,182.50
2022-12-01T00:24:09.019Z,160.10
2022-12-01T00:25:09.018Z,156.30
2022-12-01T00:26:08.995Z,190.90
2022-12-01T00:27:09.006Z,185.20
2022-12-01T00:28:08.965Z,192.70
2022-12-01T00:29:08.996Z,183.80
2022-12-01T00:30:08.946Z,185.80
2022-12-01T00:31:08.935Z,169.20
2022-12-01T00:32:08.977Z,192.00
2022-12-01T00:33:08.913Z,183.50
2022-12-01T00:34:11.536Z,186.10
2022-12-01T00:35:08.936Z,201.10
2022-12-01T00:36:08.928Z,196.80
2022-12-01T00:37:08.874Z,178.60
2022-12-01T00:38:08.894Z,185.60
2022-12-01T00:39:08.876Z,214.00
2022-12-01T00:40:08.846Z,188.60
2022-12-01T00:41:08.849Z,183.90
2022-12-01T00:42:13.295Z,182.80
2022-12-01T00:43:08.794Z,183.10
2022-12-01T00:44:08.804Z,177.90
2022-12-01T00:45:08.781Z,184.30
2022-12-01T00:46:09.024Z,181.50
2022-12-01T00:47:15.285Z,182.60
2022-12-01T00:48:08.763Z,175.80
2022-12-01T00:49:08.742Z,177.00
2022-12-01T00:50:08.770Z,186.50
2022-12-01T00:51:08.721Z,168.70
2022-12-01T00:52:08.734Z,169.10
2022-12-01T00:53:08.704Z,158.10
2022-12-01T00:54:08.692Z,151.70
2022-12-01T00:55:08.673Z,162.00
2022-12-01T00:56:08.713Z,153.60
2022-12-01T00:57:08.673Z,158.10
2022-12-01T00:58:08.642Z,149.90
2022-12-01T00:59:08.632Z,139.90
2022-12-01T01:00:08.669Z,164.00
2022-12-01T01:01:08.672Z,157.90
2022-12-01T01:02:08.660Z,146.50
2022-12-01T01:03:08.592Z,138.90
2022-12-01T01:04:08.622Z,149.90
2022-12-01T01:05:08.611Z,160.60
2022-12-01T01:06:08.570Z,160.40
2022-12-01T01:07:08.551Z,153.60
2022-12-01T01:08:08.607Z,141.10
2022-12-01T01:09:08.521Z,142.00
2022-12-01T01:10:08.561Z,143.40
2022-12-01T01:11:08.501Z,155.40
2022-12-01T01:12:08.501Z,144.50
2022-12-01T01:13:08.501Z,149.50
2022-12-01T01:14:08.540Z,156.10
2022-12-01T01:15:08.463Z,144.90
2022-12-01T01:16:08.516Z,147.70
2022-12-01T01:17:08.501Z,145.10
2022-12-01T01:18:08.439Z,147.60
2022-12-01T01:19:08.432Z,141.10
2022-12-01T01:20:08.450Z,144.90
2022-12-01T01:21:08.430Z,139.50
2022-12-01T01:22:08.390Z,148.60
2022-12-01T01:23:08.379Z,135.70
2022-12-01T01:24:08.362Z,141.60
2022-12-01T01:25:08.367Z,135.60
2022-12-01T01:26:08.349Z,141.50
2022-12-01T01:27:08.379Z,128.90
2022-12-01T01:28:08.319Z,136.60
2022-12-01T01:29:08.309Z,130.30
2022-12-01T01:30:08.307Z,129.30
2022-12-01T01:31:08.332Z,129.30
2022-12-01T01:32:08.299Z,123.30
2022-12-01T01:33:08.299Z,112.70
2022-12-01T01:34:08.260Z,109.40
2022-12-01T01:35:08.257Z,115.70
2022-12-01T01:36:08.333Z,111.30
2022-12-01T01:37:08.254Z,108.80
2022-12-01T01:38:08.219Z,108.40
2022-12-01T01:39:08.208Z,112.90
2022-12-01T01:40:08.257Z,117.60
2022-12-01T01:41:08.189Z,102.10
2022-12-01T01:42:08.168Z,102.90
2022-12-01T01:43:08.198Z,110.50
2022-12-01T01:44:08.197Z,99.10
2022-12-01T01:45:08.148Z,106.30
2022-12-01T01:46:08.218Z,93.50
2022-12-01T01:47:08.118Z,91.30
2022-12-01T01:48:08.097Z,79.60
2022-12-01T01:49:08.141Z,91.30
2022-12-01T01:50:08.086Z,77.70
2022-12-01T01:51:08.077Z,80.30
2022-12-01T01:52:08.098Z,72.60
2022-12-01T01:53:08.056Z,72.00
2022-12-01T01:54:08.058Z,73.30
2022-12-01T01:55:08.038Z,77.10
2022-12-01T01:56:08.037Z,72.90
2022-12-01T01:57:08.013Z,75.10
2022-12-01T01:58:08.036Z,67.40
2022-12-01T01:59:08.017Z,70.10
2022-12-01T02:00:08.045Z,71.50
2022-12-01T02:01:08.050Z,69.40
2022-12-01T02:02:08.004Z,64.90
2022-12-01T02:03:07.965Z,73.40
2022-12-01T02:04:07.965Z,64.40
2022-12-01T02:05:07.926Z,62.90
2022-12-01T02:06:07.915Z,64.40
2022-12-01T02:07:07.905Z,63.00
2022-12-01T02:08:07.944Z,60.90
2022-12-01T02:09:07.882Z,66.60
2022-12-01T02:10:07.906Z,60.10
2022-12-01T02:11:07.862Z,62.60
2022-12-01T02:12:07.845Z,61.50
2022-12-01T02:13:07.853Z,64.50
2022-12-01T02:14:07.901Z,63.50
2022-12-01T02:15:07.814Z,62.50
2022-12-01T02:16:07.814Z,70.10
2022-12-01T02:17:07.851Z,67.40
2022-12-01T02:18:07.783Z,67.20
2022-12-01T02:19:07.842Z,67.00
2022-12-01T02:20:07.756Z,62.90
2022-12-01T02:21:07.784Z,65.40
2022-12-01T02:22:07.733Z,70.80
2022-12-01T02:23:07.740Z,61.10
2022-12-01T02:24:07.713Z,66.70
2022-12-01T02:25:07.793Z,65.70
2022-12-01T02:26:07.704Z,64.70
2022-12-01T02:27:07.690Z,66.10
2022-12-01T02:28:07.680Z,63.50
2022-12-01T02:29:07.692Z,68.90
2022-12-01T02:30:07.653Z,69.90
2022-12-01T02:31:07.696Z,68.10
2022-12-01T02:32:07.665Z,76.10
2022-12-01T02:33:07.671Z,71.90
2022-12-01T02:34:07.607Z,66.40
2022-12-01T02:35:07.692Z,73.30
2022-12-01T02:36:07.628Z,65.40
2022-12-01T02:37:07.593Z,69.20
2022-12-01T02:38:07.560Z,72.70
2022-12-01T02:39:07.590Z,73.80
2022-12-01T02:40:07.541Z,70.40
2022-12-01T02:41:07.546Z,69.30
2022-12-01T02:42:07.520Z,70.50
2022-12-01T02:43:07.510Z,77.80
2022-12-01T02:44:07.501Z,71.30
2022-12-01T02:45:07.529Z,67.80
2022-12-01T02:46:07.522Z,64.10
2022-12-01T02:47:07.489Z,70.30
2022-12-01T02:48:07.454Z,66.20
2022-12-01T02:49:07.450Z,70.10
2022-12-01T02:50:07.460Z,66.80
2022-12-01T02:51:07.458Z,61.70
2022-12-01T02:52:07.429Z,65.80
2022-12-01T02:53:07.409Z,61.80
2022-12-01T02:54:07.478Z,57.80
2022-12-01T02:55:07.388Z,62.10
2022-12-01T02:56:07.398Z,61.00
2022-12-01T02:57:07.395Z,59.10
2022-12-01T02:58:07.349Z,61.40
2022-12-01T02:59:07.339Z,60.60
2022-12-01T03:00:07.329Z,63.90
2022-12-01T03:01:07.448Z,62.70
2022-12-01T03:02:07.376Z,64.00
2022-12-01T03:03:07.307Z,59.70
2022-12-01T03:04:07.279Z,63.00
2022-12-01T03:05:07.419Z,66.60
2022-12-01T03:06:07.273Z,68.70
2022-12-01T03:07:07.258Z,67.30
2022-12-01T03:08:07.320Z,61.70
2022-12-01T03:09:07.268Z,63.50
2022-12-01T03:10:07.238Z,70.50
2022-12-01T03:11:07.238Z,64.20
2022-12-01T03:12:07.198Z,61.60
2022-12-01T03:13:14.219Z,65.40
2022-12-01T03:14:07.200Z,64.70
2022-12-01T03:15:07.169Z,64.20
2022-12-01T03:16:07.210Z,63.70
2022-12-01T03:17:07.140Z,64.00
2022-12-01T03:18:07.130Z,67.20
2022-12-01T03:19:07.558Z,67.80
2022-12-01T03:20:07.109Z,61.80
2022-12-01T03:21:07.139Z,63.70
2022-12-01T03:22:07.088Z,63.90
2022-12-01T03:23:07.078Z,64.40
2022-12-01T03:24:07.058Z,58.40
2022-12-01T03:25:07.059Z,59.80
2022-12-01T03:26:07.075Z,53.80
2022-12-01T03:27:07.068Z,61.10
2022-12-01T03:28:21.023Z,55.90
2022-12-01T03:29:08.012Z,58.70
2022-12-01T03:30:07.026Z,62.00
2022-12-01T03:31:07.062Z,56.90
2022-12-01T03:32:06.984Z,52.10
2022-12-01T03:33:06.967Z,53.50
2022-12-01T03:34:06.947Z,52.00
2022-12-01T03:35:06.947Z,53.00
2022-12-01T03:36:06.958Z,53.20
2022-12-01T03:37:06.928Z,56.00
2022-12-01T03:38:06.908Z,58.90
2022-12-01T03:39:06.907Z,58.90
2022-12-01T03:40:07.116Z,64.40
2022-12-01T03:41:06.884Z,58.30
2022-12-01T03:42:06.865Z,58.50
2022-12-01T03:43:06.858Z,58.60
2022-12-01T03:44:06.846Z,57.30
2022-12-01T03:45:06.837Z,59.80
2022-12-01T03:46:06.885Z,61.80
2022-12-01T03:47:06.816Z,62.70
2022-12-01T03:48:06.866Z,60.60
2022-12-01T03:49:06.796Z,60.20
2022-12-01T03:50:06.785Z,63.10
2022-12-01T03:51:06.791Z,62.70
2022-12-01T03:52:06.765Z,61.40
2022-12-01T03:53:06.756Z,65.60
2022-12-01T03:54:06.766Z,67.30
2022-12-01T03:55:06.835Z,61.40
2022-12-01T03:56:06.715Z,63.60
2022-12-01T03:57:06.735Z,66.40
2022-12-01T03:58:06.696Z,67.20
2022-12-01T03:59:06.685Z,69.70
2022-12-01T04:00:06.697Z,72.70
2022-12-01T04:01:06.664Z,73.70
2022-12-01T04:02:06.712Z,62.00
2022-12-01T04:03:06.712Z,68.40
2022-12-01T04:04:06.633Z,60.90
2022-12-01T04:05:06.625Z,62.00
2022-12-01T04:06:06.603Z,63.00
2022-12-01T04:07:06.604Z,63.30
2022-12-01T04:08:06.641Z,65.40
2022-12-01T04:09:06.611Z,59.90
2022-12-01T04:10:06.566Z,62.00
2022-12-01T04:11:06.553Z,59.20
2022-12-01T04:12:06.577Z,53.80
2022-12-01T04:13:06.601Z,57.10
2022-12-01T04:14:06.525Z,58.20
2022-12-01T04:15:06.515Z,58.10
2022-12-01T04:16:06.560Z,56.40
2022-12-01T04:17:06.493Z,56.80
2022-12-01T04:18:06.482Z,56.10
2022-12-01T04:19:06.663Z,60.20
2022-12-01T04:20:06.475Z,61.70
2022-12-01T04:21:06.454Z,56.80
2022-12-01T04:22:06.486Z,60.70
2022-12-01T04:23:06.432Z,66.00
2022-12-01T04:24:06.423Z,65.20
2022-12-01T04:25:06.431Z,56.00
2022-12-01T04:26:09.013Z,66.50
2022-12-01T04:27:07.382Z,65.10
2022-12-01T04:28:06.372Z,61.40
2022-12-01T04:29:06.361Z,66.00
2022-12-01T04:30:06.382Z,61.80
2022-12-01T04:31:06.358Z,64.90
2022-12-01T04:32:06.360Z,60.10
2022-12-01T04:33:06.320Z,62.10
2022-12-01T04:34:06.312Z,58.10
2022-12-01T04:35:06.333Z,60.90
2022-12-01T04:36:06.281Z,61.80
2022-12-01T04:37:06.284Z,59.70
2022-12-01T04:38:06.260Z,58.60
2022-12-01T04:39:06.251Z,64.80
2022-12-01T04:40:06.241Z,60.00
2022-12-01T04:41:06.290Z,63.50
2022-12-01T04:42:06.226Z,60.20
2022-12-01T04:43:06.210Z,62.50
2022-12-01T04:44:06.204Z,57.80
2022-12-01T04:45:06.190Z,53.80
2022-12-01T04:46:06.208Z,57.90
2022-12-01T04:47:06.271Z,61.40
2022-12-01T04:48:06.159Z,61.10
2022-12-01T04:49:06.161Z,53.90
2022-12-01T04:50:06.145Z,52.50
2022-12-01T04:51:06.163Z,58.30
2022-12-01T04:52:06.108Z,57.30
2022-12-01T04:53:06.109Z,57.70
2022-12-01T04:54:06.096Z,56.70
2022-12-01T04:55:06.112Z,55.40
2022-12-01T04:56:06.137Z,58.50
2022-12-01T04:57:06.069Z,60.00
2022-12-01T04:58:06.330Z,59.10
2022-12-01T04:59:06.058Z,57.20
2022-12-01T05:00:06.992Z,60.00
2022-12-01T05:01:06.102Z,60.20
2022-12-01T05:02:06.102Z,58.40
2022-12-01T05:03:08.593Z,61.40
2022-12-01T05:04:07.019Z,60.80
2022-12-01T05:05:06.068Z,57.20
2022-12-01T05:06:05.971Z,58.40
2022-12-01T05:07:05.959Z,59.50
2022-12-01T05:08:06.027Z,60.00
2022-12-01T05:09:05.978Z,60.70
2022-12-01T05:10:05.929Z,61.50
2022-12-01T05:11:05.909Z,58.60
2022-12-01T05:12:05.925Z,56.30
2022-12-01T05:13:05.886Z,61.30
2022-12-01T05:14:05.879Z,59.60
2022-12-01T05:15:05.879Z,62.50
2022-12-01T05:16:05.896Z,56.10
2022-12-01T05:17:05.848Z,58.30
2022-12-01T05:18:05.834Z,59.70
2022-12-01T05:19:05.827Z,57.60
2022-12-01T05:20:05.846Z,65.40
2022-12-01T05:21:05.808Z,58.00
2022-12-01T05:22:05.806Z,61.60
2022-12-01T05:23:06.567Z,61.40
2022-12-01T05:24:05.774Z,55.90
2022-12-01T05:25:05.799Z,57.20
2022-12-01T05:26:05.747Z,60.60
2022-12-01T05:27:05.746Z,59.20
2022-12-01T05:28:05.725Z,63.70
2022-12-01T05:29:05.725Z,62.70
2022-12-01T05:30:05.726Z,62.40
2022-12-01T05:31:05.755Z,62.50
2022-12-01T05:32:05.699Z,62.60
2022-12-01T05:33:05.675Z,61.30
2022-12-01T05:34:05.663Z,60.70
2022-12-01T05:35:05.946Z,59.40
2022-12-01T05:36:05.652Z,64.00
2022-12-01T05:37:05.633Z,62.60
2022-12-01T05:38:08.060Z,63.00
2022-12-01T05:39:05.603Z,81.20
2022-12-01T05:40:05.614Z,63.20
2022-12-01T05:41:05.598Z,66.10
2022-12-01T05:42:05.573Z,69.80
2022-12-01T05:43:05.555Z,66.30
2022-12-01T05:44:05.725Z,68.20
2022-12-01T05:45:05.742Z,69.30
2022-12-01T05:46:05.552Z,70.90
2022-12-01T05:47:05.524Z,69.70
2022-12-01T05:48:05.574Z,68.80
2022-12-01T05:49:05.506Z,75.10
2022-12-01T05:50:06.209Z,73.70
2022-12-01T05:51:05.483Z,70.50
2022-12-01T05:52:05.474Z,64.50
2022-12-01T05:53:05.454Z,70.50
2022-12-01T05:54:05.455Z,74.50
2022-12-01T05:55:05.498Z,76.70
2022-12-01T05:56:05.433Z,72.80
2022-12-01T05:57:05.444Z,72.60
2022-12-01T05:58:05.411Z,68.70
2022-12-01T05:59:05.404Z,75.90
2022-12-01T06:00:05.383Z,77.30
2022-12-01T06:01:05.373Z,76.30
2022-12-01T06:02:05.467Z,78.30
2022-12-01T06:03:12.842Z,77.90
2022-12-01T06:04:05.368Z,77.60
2022-12-01T06:05:05.332Z,77.60
2022-12-01T06:06:05.323Z,80.60
2022-12-01T06:07:05.342Z,82.90
2022-12-01T06:08:05.343Z,75.70
2022-12-01T06:09:05.283Z,78.20
2022-12-01T06:10:05.275Z,80.60
2022-12-01T06:11:05.293Z,92.70
2022-12-01T06:12:05.253Z,82.80
2022-12-01T06:13:05.283Z,84.20
2022-12-01T06:14:05.233Z,83.20
2022-12-01T06:15:05.222Z,81.70
2022-12-01T06:16:05.242Z,87.40
2022-12-01T06:17:05.201Z,84.50
2022-12-01T06:18:05.212Z,82.30
2022-12-01T06:19:05.180Z,91.00
2022-12-01T06:20:05.171Z,83.90
2022-12-01T06:21:05.152Z,86.30
2022-12-01T06:22:05.150Z,87.20
2022-12-01T06:23:05.140Z,90.30
2022-12-01T06:24:05.150Z,88.30
2022-12-01T06:25:05.110Z,93.30
2022-12-01T06:26:05.322Z,84.70
2022-12-01T06:27:05.091Z,83.90
2022-12-01T06:28:05.080Z,86.70
2022-12-01T06:29:05.070Z,85.00
2022-12-01T06:30:05.060Z,81.70
2022-12-01T06:31:05.049Z,90.40
2022-12-01T06:32:05.128Z,82.90
2022-12-01T06:33:05.100Z,89.40
2022-12-01T06:34:05.021Z,88.10
2022-12-01T06:35:05.011Z,82.90
2022-12-01T06:36:05.000Z,82.90
2022-12-01T06:37:04.979Z,85.10
2022-12-01T06:38:04.971Z,85.10
2022-12-01T06:39:04.990Z,80.40
2022-12-01T06:40:04.982Z,84.00
2022-12-01T06:41:04.939Z,79.40
2022-12-01T06:42:04.969Z,83.90
2022-12-01T06:43:04.917Z,83.30
2022-12-01T06:44:04.909Z,80.50
2022-12-01T06:45:06.009Z,89.80
2022-12-01T06:46:04.934Z,84.40
2022-12-01T06:47:04.908Z,92.30
2022-12-01T06:48:04.868Z,84.70
2022-12-01T06:49:04.849Z,85.40
2022-12-01T06:50:04.848Z,91.90
2022-12-01T06:51:04.829Z,84.10
2022-12-01T06:52:04.838Z,86.80
2022-12-01T06:53:04.946Z,85.60
2022-12-01T06:54:05.795Z,91.30
2022-12-01T06:55:04.807Z,93.50
2022-12-01T06:56:04.861Z,90.70
2022-12-01T06:57:04.770Z,95.10
2022-12-01T06:58:04.782Z,90.80
2022-12-01T06:59:06.287Z,84.80
2022-12-01T07:00:04.741Z,89.90
2022-12-01T07:01:04.765Z,88.90
2022-12-01T07:02:04.729Z,97.70
2022-12-01T07:03:04.707Z,86.10
2022-12-01T07:04:04.697Z,93.60
2022-12-01T07:05:04.717Z,87.20
2022-12-01T07:06:04.667Z,90.70
2022-12-01T07:07:04.686Z,98.90
2022-12-01T07:08:04.706Z,91.60
2022-12-01T07:09:04.649Z,86.70
2022-12-01T07:10:04.786Z,95.60
2022-12-01T07:11:04.626Z,101.00
2022-12-01T07:12:04.612Z,96.70
2022-12-01T07:13:04.726Z,93.30
2022-12-01T07:14:04.575Z,97.30
2022-12-01T07:15:04.564Z,91.30
2022-12-01T07:16:04.563Z,99.10
2022-12-01T07:17:05.393Z,91.60
2022-12-01T07:18:04.535Z,95.80
2022-12-01T07:19:04.513Z,99.70
2022-12-01T07:20:04.553Z,92.50
2022-12-01T07:21:04.492Z,90.30
2022-12-01T07:22:04.492Z,94.20
2022-12-01T07:23:04.472Z,91.50
2022-12-01T07:24:04.472Z,91.80
2022-12-01T07:25:04.451Z,89.10
2022-12-01T07:26:07.643Z,93.80
2022-12-01T07:27:04.452Z,93.00
2022-12-01T07:28:04.433Z,93.50
2022-12-01T07:29:04.432Z,83.00
2022-12-01T07:30:04.401Z,85.30
2022-12-01T07:31:04.489Z,82.60
2022-12-01T07:32:04.381Z,81.50
2022-12-01T07:33:04.370Z,82.10
2022-12-01T07:34:18.080Z,77.80
2022-12-01T07:35:04.355Z,76.20
2022-12-01T07:36:04.420Z,75.60
2022-12-01T07:37:04.322Z,83.10
2022-12-01T07:38:04.320Z,82.40
2022-12-01T07:39:04.473Z,82.50
2022-12-01T07:40:04.311Z,79.80
2022-12-01T07:41:04.294Z,76.10
2022-12-01T07:42:04.313Z,74.30
2022-12-01T07:43:04.290Z,75.00
2022-12-01T07:44:04.251Z,76.50
2022-12-01T07:45:04.249Z,76.80
2022-12-01T07:46:04.290Z,81.30
2022-12-01T07:47:04.228Z,75.60
2022-12-01T07:48:04.223Z,79.20
2022-12-01T07:49:04.245Z,83.40
2022-12-01T07:50:04.201Z,84.80
2022-12-01T07:51:04.256Z,83.70
2022-12-01T07:52:04.175Z,90.60
2022-12-01T07:53:04.163Z,78.40
2022-12-01T07:54:04.164Z,77.80
2022-12-01T07:55:04.181Z,77.00
2022-12-01T07:56:08.341Z,86.40
2022-12-01T07:57:04.115Z,79.80
2022-12-01T07:58:04.112Z,77.60
2022-12-01T07:59:04.190Z,80.00
2022-12-01T08:00:04.097Z,76.60
2022-12-01T08:01:04.124Z,74.50
2022-12-01T08:02:04.112Z,80.90
2022-12-01T08:03:04.124Z,76.70
2022-12-01T08:04:04.052Z,80.90
2022-12-01T08:05:04.171Z,74.10
2022-12-01T08:06:04.070Z,73.80
2022-12-01T08:07:04.021Z,74.50
2022-12-01T08:08:04.075Z,80.00
2022-12-01T08:09:04.023Z,80.00
2022-12-01T08:10:04.058Z,72.30
2022-12-01T08:11:04.107Z,66.00
2022-12-01T08:12:03.962Z,69.30
2022-12-01T08:13:03.951Z,64.50
2022-12-01T08:14:03.941Z,65.40
2022-12-01T08:15:04.051Z,65.70
2022-12-01T08:16:04.004Z,67.30
2022-12-01T08:17:03.911Z,67.20
2022-12-01T08:18:03.909Z,64.20
2022-12-01T08:19:03.881Z,62.90
2022-12-01T08:20:03.900Z,70.90
2022-12-01T08:21:06.613Z,71.50
2022-12-01T08:22:03.858Z,65.00
2022-12-01T08:23:03.840Z,66.60
2022-12-01T08:24:03.873Z,67.70
2022-12-01T08:25:03.821Z,64.70
2022-12-01T08:26:03.808Z,69.00
2022-12-01T08:27:03.798Z,83.60
2022-12-01T08:28:03.800Z,88.30
2022-12-01T08:29:03.778Z,71.70
2022-12-01T08:30:03.798Z,67.80
2022-12-01T08:31:03.779Z,62.60
2022-12-01T08:32:03.755Z,74.70
2022-12-01T08:33:03.767Z,76.10
2022-12-01T08:34:03.727Z,76.70
2022-12-01T08:35:03.712Z,64.70
2022-12-01T08:36:03.751Z,67.70
2022-12-01T08:37:03.699Z,89.80
2022-12-01T08:38:03.692Z,112.00
2022-12-01T08:39:03.668Z,94.00
2022-12-01T08:40:03.679Z,95.30
2022-12-01T08:41:03.656Z,73.90
2022-12-01T08:42:03.737Z,73.20
2022-12-01T08:43:03.656Z,70.80
2022-12-01T08:44:03.627Z,69.10
2022-12-01T08:45:03.668Z,73.70
2022-12-01T08:46:03.621Z,68.70
2022-12-01T08:47:03.587Z,70.10
2022-12-01T08:48:03.585Z,72.80
2022-12-01T08:49:03.599Z,70.00
2022-12-01T08:50:03.549Z,62.30
2022-12-01T08:51:03.538Z,67.00
2022-12-01T08:52:06.460Z,66.40
2022-12-01T08:53:03.516Z,71.90
2022-12-01T08:54:03.522Z,70.60
2022-12-01T08:55:03.504Z,66.20
2022-12-01T08:56:03.496Z,70.00
2022-12-01T08:57:03.486Z,74.60
2022-12-01T08:58:03.597Z,68.80
2022-12-01T08:59:03.462Z,71.40
2022-12-01T09:00:03.447Z,78.10
2022-12-01T09:01:03.457Z,75.40
2022-12-01T09:02:06.977Z,75.40
2022-12-01T09:03:03.531Z,76.00
2022-12-01T09:04:03.395Z,72.70
2022-12-01T09:05:03.404Z,77.40
2022-12-01T09:06:03.406Z,70.60
2022-12-01T09:07:03.473Z,78.90
2022-12-01T09:08:03.402Z,79.30
2022-12-01T09:09:03.380Z,69.80
2022-12-01T09:10:03.344Z,74.60
2022-12-01T09:11:03.314Z,69.90
2022-12-01T09:12:03.313Z,68.70
2022-12-01T09:13:03.354Z,67.10
2022-12-01T09:15:13.292Z,61.90
2022-12-01T09:16:13.298Z,62.90
2022-12-01T09:17:13.261Z,70.60
2022-12-01T09:18:13.292Z,69.90
2022-12-01T09:19:13.587Z,72.00
2022-12-01T09:20:13.231Z,70.10
2022-12-01T09:21:13.220Z,68.60
2022-12-01T09:22:13.209Z,69.50
2022-12-01T09:23:13.204Z,64.50
2022-12-01T09:24:13.559Z,66.90
2022-12-01T09:25:13.183Z,67.00
2022-12-01T09:26:13.950Z,60.20
2022-12-01T09:27:13.171Z,54.00
2022-12-01T09:28:13.157Z,58.90
2022-12-01T09:29:13.145Z,55.80
2022-12-01T09:30:13.212Z,51.30
2022-12-01T09:31:13.138Z,55.50
2022-12-01T09:32:13.135Z,54.80
2022-12-01T09:33:13.090Z,54.60
2022-12-01T09:34:13.210Z,56.30
2022-12-01T09:35:13.071Z,53.00
2022-12-01T09:36:13.049Z,52.30
2022-12-01T09:37:13.052Z,60.50
2022-12-01T09:38:13.039Z,61.00
2022-12-01T09:39:13.027Z,55.70
2022-12-01T09:40:13.079Z,61.80
2022-12-01T09:41:13.010Z,57.80
2022-12-01T09:42:13.106Z,54.70
2022-12-01T09:43:12.988Z,55.40
2022-12-01T09:44:12.969Z,55.90
2022-12-01T09:45:12.963Z,57.90
2022-12-01T09:46:12.999Z,53.40
2022-12-01T09:47:13.018Z,54.30
2022-12-01T09:48:13.086Z,59.40
2022-12-01T09:49:12.929Z,56.50
2022-12-01T09:50:12.947Z,54.50
2022-12-01T09:51:12.898Z,57.40
2022-12-01T09:52:12.936Z,53.60
2022-12-01T09:53:12.888Z,55.50
2022-12-01T09:54:12.868Z,57.90
2022-12-01T09:55:12.908Z,58.40
2022-12-01T09:56:13.127Z,57.80
2022-12-01T09:57:12.842Z,57.30
2022-12-01T09:58:12.847Z,58.50
2022-12-01T09:59:12.817Z,59.50
2022-12-01T10:00:12.796Z,57.40
2022-12-01T10:01:12.841Z,55.90
2022-12-01T10:02:12.827Z,55.10
2022-12-01T10:03:14.404Z,56.50
2022-12-01T10:04:12.757Z,54.60
2022-12-01T10:05:12.827Z,55.20
2022-12-01T10:06:29.167Z,54.80
2022-12-01T10:07:13.773Z,57.30
2022-12-01T10:08:12.735Z,58.90
2022-12-01T10:09:12.705Z,54.60
2022-12-01T10:10:12.714Z,55.60
2022-12-01T10:11:12.786Z,54.30
2022-12-01T10:12:12.765Z,55.50
2022-12-01T10:13:12.785Z,52.70
2022-12-01T10:14:17.963Z,51.90
2022-12-01T10:15:13.671Z,51.50
2022-12-01T10:16:15.893Z,53.50
2022-12-01T10:17:12.615Z,56.50
2022-12-01T10:18:12.612Z,58.30
2022-12-01T10:19:12.602Z,55.70
2022-12-01T10:20:12.586Z,56.20
2022-12-01T10:21:12.603Z,57.20
2022-12-01T10:22:12.572Z,65.10
2022-12-01T10:23:12.555Z,61.20
2022-12-01T10:24:12.545Z,49.00
2022-12-01T10:25:12.580Z,53.70
2022-12-01T10:26:12.522Z,53.40
2022-12-01T10:27:12.511Z,54.50
2022-12-01T10:28:12.524Z,56.80
2022-12-01T10:29:12.644Z,57.90
2022-12-01T10:30:12.483Z,57.20
2022-12-01T10:31:12.511Z,57.90
2022-12-01T10:32:12.463Z,54.90
2022-12-01T10:33:12.484Z,59.80
2022-12-01T10:34:12.437Z,62.30
2022-12-01T10:35:12.421Z,60.00
2022-12-01T10:36:12.421Z,58.40
2022-12-01T10:37:12.402Z,55.60
2022-12-01T10:38:12.461Z,58.10
2022-12-01T10:39:15.274Z,57.30
2022-12-01T10:40:12.373Z,56.00
2022-12-01T10:41:12.374Z,57.00
2022-12-01T10:42:12.355Z,59.10
2022-12-01T10:43:12.394Z,58.20
2022-12-01T10:44:12.333Z,67.40
2022-12-01T10:45:12.313Z,64.90
2022-12-01T10:46:12.425Z,63.00
2022-12-01T10:47:12.292Z,55.80
2022-12-01T10:48:12.299Z,61.00
2022-12-01T10:49:12.312Z,57.60
2022-12-01T10:50:12.562Z,62.50
2022-12-01T10:51:12.251Z,56.40
2022-12-01T10:52:12.262Z,79.60
2022-12-01T10:53:12.232Z,70.60
2022-12-01T10:54:12.232Z,63.50
2022-12-01T10:55:12.244Z,70.20
2022-12-01T10:56:12.211Z,73.80
2022-12-01T10:57:12.193Z,75.10
2022-12-01T10:58:12.212Z,67.10
2022-12-01T10:59:12.200Z,68.00
2022-12-01T11:00:25.475Z,66.00
2022-12-01T11:01:13.183Z,70.80
2022-12-01T11:02:12.353Z,62.20
2022-12-01T11:03:15.684Z,63.00
2022-12-01T11:04:13.131Z,80.00
2022-12-01T11:05:12.101Z,76.20
2022-12-01T11:06:12.131Z,69.40
2022-12-01T11:07:12.081Z,68.20
2022-12-01T11:08:12.148Z,67.20
2022-12-01T11:09:12.058Z,66.80
2022-12-01T11:10:19.757Z,65.70
2022-12-01T11:11:12.037Z,68.20
2022-12-01T11:12:12.029Z,69.20
2022-12-01T11:13:12.013Z,70.80
2022-12-01T11:14:12.020Z,66.50
2022-12-01T11:15:14.992Z,72.90
2022-12-01T11:16:12.039Z,73.70
2022-12-01T11:17:11.970Z,70.30
2022-12-01T11:18:11.999Z,67.90
2022-12-01T11:19:12.001Z,74.60
2022-12-01T11:20:12.021Z,72.70
2022-12-01T11:21:11.930Z,74.00
2022-12-01T11:22:11.919Z,77.90
2022-12-01T11:23:11.908Z,77.20
2022-12-01T11:24:11.898Z,77.60
2022-12-01T11:25:11.920Z,75.90
2022-12-01T11:26:11.879Z,73.60
2022-12-01T11:27:11.866Z,84.50
2022-12-01T11:28:11.861Z,83.20
2022-12-01T11:29:11.876Z,79.30
2022-12-01T11:30:11.860Z,81.00
2022-12-01T11:31:11.844Z,74.80
2022-12-01T11:32:11.873Z,76.70
2022-12-01T11:33:11.817Z,80.90
2022-12-01T11:34:11.797Z,75.20
2022-12-01T11:35:11.777Z,79.90
2022-12-01T11:36:16.042Z,75.50
2022-12-01T11:37:11.745Z,81.80
2022-12-01T11:39:12.747Z,77.80
2022-12-01T11:40:11.747Z,80.70
2022-12-01T11:41:11.716Z,78.50
2022-12-01T11:42:11.695Z,80.10
2022-12-01T11:43:11.753Z,79.00
2022-12-01T11:44:28.553Z,77.70
2022-12-01T11:45:12.707Z,80.30
2022-12-01T11:46:11.732Z,81.80
2022-12-01T11:47:22.657Z,82.50
2022-12-01T11:48:12.634Z,78.90
2022-12-01T11:49:11.626Z,79.70
2022-12-01T11:50:11.614Z,84.10
2022-12-01T11:51:11.654Z,77.90
2022-12-01T11:52:11.621Z,83.40
2022-12-01T11:53:11.575Z,84.10
2022-12-01T11:54:11.626Z,90.40
2022-12-01T11:55:11.564Z,90.60
2022-12-01T11:56:11.556Z,80.20
2022-12-01T11:57:33.286Z,78.60
2022-12-01T11:58:12.524Z,89.10
2022-12-01T11:59:11.524Z,92.30
2022-12-01T12:00:11.516Z,79.90
2022-12-01T12:01:11.508Z,82.40
2022-12-01T12:02:11.586Z,82.00
2022-12-01T12:03:11.540Z,80.50
2022-12-01T12:04:11.480Z,86.60
2022-12-01T12:05:11.505Z,78.60
2022-12-01T12:06:39.115Z,80.40
2022-12-01T12:07:12.440Z,83.40
2022-12-01T12:08:11.425Z,86.30
2022-12-01T12:09:11.463Z,80.30
2022-12-01T12:10:11.405Z,83.90
2022-12-01T12:11:11.475Z,84.40
2022-12-01T12:12:11.386Z,82.20
2022-12-01T12:13:11.385Z,80.20
2022-12-01T12:14:11.364Z,87.00
2022-12-01T12:15:11.374Z,85.00
2022-12-01T12:16:11.366Z,80.70
2022-12-01T12:17:11.335Z,79.10
2022-12-01T12:18:12.369Z,82.50
2022-12-01T12:19:11.314Z,85.60
2022-12-01T12:20:11.978Z,83.80
2022-12-01T12:21:11.303Z,85.60
2022-12-01T12:22:11.281Z,87.20
2022-12-01T12:23:11.303Z,87.90
2022-12-01T12:24:11.252Z,87.10
2022-12-01T12:25:11.253Z,83.70
2022-12-01T12:26:11.251Z,84.90
2022-12-01T12:27:11.213Z,89.10
2022-12-01T12:28:11.225Z,89.20
2022-12-01T12:29:13.996Z,85.80
2022-12-01T12:30:11.193Z,83.20
2022-12-01T12:31:11.241Z,87.30
2022-12-01T12:32:11.606Z,85.20
2022-12-01T12:33:11.163Z,87.80
2022-12-01T12:34:11.142Z,89.80
2022-12-01T12:35:11.131Z,94.80
2022-12-01T12:36:11.122Z,90.40
2022-12-01T12:37:11.121Z,85.60
2022-12-01T12:38:11.140Z,91.00
2022-12-01T12:39:16.439Z,86.20
2022-12-01T12:40:12.155Z,84.50
2022-12-01T12:41:11.061Z,88.70
2022-12-01T12:42:11.062Z,91.50
2022-12-01T12:43:11.050Z,87.40
2022-12-01T12:44:11.081Z,88.40
2022-12-01T12:45:11.023Z,94.30
2022-12-01T12:46:11.061Z,92.60
2022-12-01T12:47:11.000Z,90.60
2022-12-01T12:48:11.000Z,84.20
2022-12-01T12:49:19.880Z,81.10
2022-12-01T12:50:12.058Z,92.90
2022-12-01T12:51:10.950Z,86.20